Time;durP1;ratioP1;P1;durP2;ratioP2;P2;SDS_P1;SDS_P2;PMS_P1;PMS_P2;Temp;Humidity;BMP_temperature;BMP_pressure;BME280_temperature;BME280_humidity;BME280_pressure;Samples;Min_cycle;Max_cycle;Signal;HPM_P1;HPM_P2
2021/10/04 00:02:51;;;;;;;14.40;9.70;;;;;;;11.77;71.15;100244.53;112763;1200;110003;-67
2021/10/04 00:05:38;;;;;;;16.90;10.90;;;;;;;11.77;71.09;100251.82;112683;1200;138289;-68
2021/10/04 00:08:25;;;;;;;15.90;11.10;;;;;;;11.77;71.19;100247.48;113489;1200;96140;-67
2021/10/04 00:11:12;;;;;;;15.50;9.80;;;;;;;11.74;71.32;100249.53;112740;1200;138267;-67
2021/10/04 00:13:59;;;;;;;;;;;;;;;11.74;71.20;100248.13;114272;1200;108690;-67
2021/10/04 00:16:46;;;;;;;17.30;11.20;;;;;;;11.72;71.35;100244.35;114130;1200;124360;-67
2021/10/04 00:19:34;;;;;;;18.60;9.90;;;;;;;11.71;71.29;100241.29;114252;1199;94407;-70
2021/10/04 00:22:21;;;;;;;13.20;10.40;;;;;;;11.71;71.35;100243.89;113007;1201;96159;-66
2021/10/04 00:25:09;;;;;;;16.10;10.80;;;;;;;11.72;71.37;100247.66;112653;1200;137805;-67
2021/10/04 00:27:56;;;;;;;14.70;10.60;;;;;;;11.72;71.39;100247.52;112723;1194;108337;-67
2021/10/04 00:30:43;;;;;;;14.20;10.50;;;;;;;11.69;71.34;100244.48;114063;1200;138056;-67
2021/10/04 00:33:29;;;;;;;14.60;10.20;;;;;;;11.69;71.42;100245.55;114183;1200;94564;-67
2021/10/04 00:36:16;;;;;;;13.90;10.20;;;;;;;11.69;71.28;100243.27;112737;1200;137565;-68
2021/10/04 00:39:04;;;;;;;16.40;10.60;;;;;;;11.68;71.38;100243.65;112785;1200;111200;-68
2021/10/04 00:41:50;;;;;;;18.00;10.60;;;;;;;11.68;71.54;100237.38;112738;1200;138895;-66
2021/10/04 00:44:37;;;;;;;16.70;10.80;;;;;;;11.69;71.39;100239.10;112791;1200;109039;-66
2021/10/04 00:47:24;;;;;;;14.00;10.10;;;;;;;11.68;71.70;100238.77;113445;1200;137888;-67
2021/10/04 00:50:12;;;;;;;11.90;9.90;;;;;;;11.66;71.53;100234.45;112832;1200;96255;-67
2021/10/04 00:53:00;;;;;;;15.30;10.50;;;;;;;11.66;71.65;100235.15;112647;1200;138077;-66
2021/10/04 00:55:46;;;;;;;13.50;9.70;;;;;;;11.65;71.57;100235.73;114222;1199;107476;-68
2021/10/04 00:58:33;;;;;;;13.60;9.60;;;;;;;11.62;71.75;100233.39;114154;1200;108673;-66
2021/10/04 01:01:20;;;;;;;15.30;10.00;;;;;;;11.61;71.69;100228.75;114091;1199;137687;-66
2021/10/04 01:04:07;;;;;;;19.50;10.80;;;;;;;11.62;71.82;100234.47;114250;1199;94507;-65
2021/10/04 01:06:56;;;;;;;15.00;9.70;;;;;;;11.61;71.96;100224.56;114096;1199;137924;-66
2021/10/04 01:09:43;;;;;;;12.40;9.60;;;;;;;11.62;71.92;100224.01;114227;1199;108433;-66
2021/10/04 01:12:29;;;;;;;15.00;10.30;;;;;;;11.64;72.06;100226.73;114091;1199;137823;-66
2021/10/04 01:15:17;;;;;;;15.10;10.80;;;;;;;11.65;71.91;100227.54;114185;1200;94532;-66
2021/10/04 01:18:06;;;;;;;16.40;10.00;;;;;;;11.65;71.88;100225.80;114094;1200;138076;-66
2021/10/04 01:20:52;;;;;;;14.90;10.40;;;;;;;11.67;71.89;100221.38;114266;1200;109854;-66
2021/10/04 01:23:39;;;;;;;16.30;10.60;;;;;;;11.69;71.87;100222.54;114081;1200;138315;-66
2021/10/04 01:26:27;;;;;;;14.60;10.20;;;;;;;11.69;71.68;100218.53;114187;1200;108603;-66
2021/10/04 01:29:15;;;;;;;15.50;10.60;;;;;;;11.70;71.83;100224.05;114080;1199;139066;-66
2021/10/04 01:32:03;;;;;;;14.70;10.30;;;;;;;11.70;71.80;100220.08;114236;1200;94400;-67
2021/10/04 01:34:49;;;;;;;17.90;9.80;;;;;;;11.70;71.76;100226.86;114200;1199;110003;-66
2021/10/04 01:37:42;;;;;;;13.60;9.50;;;;;;;11.72;71.84;100229.23;114240;1200;108669;-67
2021/10/04 01:40:28;;;;;;;17.50;10.20;;;;;;;11.73;71.70;100221.52;114224;1200;108625;-67
2021/10/04 01:43:15;;;;;;;13.00;9.50;;;;;;;11.73;71.87;100221.68;114071;1199;137800;-67
2021/10/04 01:46:02;;;;;;;14.50;10.00;;;;;;;11.72;71.79;100221.89;112799;1200;96121;-67
2021/10/04 01:48:50;;;;;;;15.40;10.10;;;;;;;11.74;71.79;100217.83;112686;1186;138316;-68
2021/10/04 01:51:36;;;;;;;18.50;11.10;;;;;;;11.75;71.62;100221.60;112843;1200;108543;-68
2021/10/04 01:54:23;;;;;;;19.60;9.20;;;;;;;11.74;71.74;100217.45;114050;1200;138601;-66
2021/10/04 01:57:10;;;;;;;17.20;10.30;;;;;;;11.75;71.69;100218.31;114114;1200;95182;-66
2021/10/04 02:00:01;;;;;;;19.10;10.50;;;;;;;11.76;71.80;100222.42;114102;1200;138341;-66
2021/10/04 02:02:57;;;;;;;19.10;10.70;;;;;;;11.77;71.65;100219.08;114302;1200;111104;-67
2021/10/04 02:05:44;;;;;;;15.00;10.30;;;;;;;11.78;71.80;100218.72;114114;1199;138201;-66
2021/10/04 02:08:32;;;;;;;15.10;10.30;;;;;;;11.80;71.60;100221.11;114151;1200;108473;-67
2021/10/04 02:11:19;;;;;;;13.20;10.20;;;;;;;11.81;71.79;100220.52;114198;1200;94561;-67
2021/10/04 02:14:06;;;;;;;13.70;9.40;;;;;;;11.82;71.62;100223.44;114086;1199;226474;-67
2021/10/04 02:16:52;;;;;;;16.50;9.80;;;;;;;11.83;71.63;100223.41;114230;1200;110843;-67
2021/10/04 02:19:39;;;;;;;14.70;10.20;;;;;;;11.85;71.51;100224.93;113839;1199;137581;-67
2021/10/04 02:22:27;;;;;;;13.30;9.50;;;;;;;11.84;71.54;100215.55;114190;1200;107450;-67
2021/10/04 02:25:15;;;;;;;14.30;9.50;;;;;;;11.85;71.66;100214.14;114057;1200;140427;-67
2021/10/04 02:28:04;;;;;;;13.20;10.50;;;;;;;11.85;71.58;100220.05;114210;1200;94489;-67
2021/10/04 02:30:51;;;;;;;17.70;10.30;;;;;;;11.86;71.54;100221.78;114115;1199;137668;-67
2021/10/04 02:33:38;;;;;;;;;;;;;;;11.86;71.55;100221.77;114232;1199;107560;-67
2021/10/04 02:36:25;;;;;;;13.20;9.40;;;;;;;11.87;71.48;100209.91;114042;1199;124420;-67
2021/10/04 02:39:12;;;;;;;16.10;10.80;;;;;;;11.88;71.51;100220.30;114152;1200;94463;-67
2021/10/04 02:41:58;;;;;;;17.70;10.40;;;;;;;11.88;71.44;100223.80;114125;1200;137784;-67
2021/10/04 02:44:45;;;;;;;19.30;10.20;;;;;;;11.89;71.36;100215.71;114181;1199;111034;-66
2021/10/04 02:47:32;;;;;;;14.60;10.00;;;;;;;11.90;71.39;100215.66;114198;1200;108524;-67
2021/10/04 02:50:21;;;;;;;15.20;10.00;;;;;;;11.93;71.36;100221.66;113489;1200;138944;-66
2021/10/04 02:53:08;;;;;;;15.00;9.20;;;;;;;11.93;71.39;100219.39;112685;1193;96258;-67
2021/10/04 02:55:55;;;;;;;13.70;9.80;;;;;;;11.94;71.37;100216.23;112679;1200;137889;-66
2021/10/04 02:58:42;;;;;;;15.30;10.60;;;;;;;11.94;71.26;100221.10;112815;1200;110962;-66
2021/10/04 03:01:29;;;;;;;13.40;9.30;;;;;;;11.94;71.34;100221.62;112666;1200;138101;-68
2021/10/04 03:04:17;;;;;;;16.70;9.90;;;;;;;11.95;71.32;100225.41;112818;1200;108667;-67
2021/10/04 03:07:04;;;;;;;15.10;10.00;;;;;;;11.96;71.22;100229.88;112680;1200;137751;-68
2021/10/04 03:09:52;;;;;;;12.70;9.70;;;;;;;11.97;71.30;100225.52;112774;1200;96152;-65
2021/10/04 03:12:38;;;;;;;15.10;9.50;;;;;;;11.95;71.08;100219.13;114092;1199;137858;-67
2021/10/04 03:15:25;;;;;;;13.50;9.40;;;;;;;11.97;71.36;100224.46;113878;1200;108986;-67
2021/10/04 03:18:12;;;;;;;15.00;10.60;;;;;;;11.98;71.14;100221.12;112698;1200;137750;-67
2021/10/04 03:20:59;;;;;;;11.10;8.90;;;;;;;11.98;71.05;100214.65;112735;1200;96815;-67
2021/10/04 03:23:47;;;;;;;15.60;10.10;;;;;;;11.99;71.21;100214.80;112788;1200;96704;-66
2021/10/04 03:26:34;;;;;;;;;;;;;;;12.00;71.17;100215.78;114084;1199;137747;-68
2021/10/04 03:29:21;;;;;;;15.70;10.20;;;;;;;12.02;71.15;100214.17;113107;1198;108901;-65
2021/10/04 03:32:08;;;;;;;10.60;8.80;;;;;;;12.01;71.18;100207.92;112641;1199;138286;-68
2021/10/04 03:34:55;;;;;;;15.60;10.10;;;;;;;12.02;71.11;100210.33;112781;1200;96302;-66
2021/10/04 03:37:42;;;;;;;16.10;10.20;;;;;;;12.03;71.20;100213.95;114063;1199;137648;-68
2021/10/04 03:40:29;;;;;;;12.20;9.10;;;;;;;12.03;71.11;100212.56;113921;1200;110759;-66
2021/10/04 03:43:16;;;;;;;12.60;9.90;;;;;;;12.04;71.09;100210.10;112730;1200;140085;-66
2021/10/04 03:46:03;;;;;;;16.70;9.60;;;;;;;12.06;71.12;100223.06;114191;1200;108358;-67
2021/10/04 03:48:50;;;;;;;19.60;10.00;;;;;;;12.08;70.90;100211.67;114126;1200;138359;-67
2021/10/04 03:51:37;;;;;;;;;;;;;;;12.08;70.94;100212.69;114201;1200;94570;-67
2021/10/04 03:54:23;;;;;;;19.00;9.50;;;;;;;12.11;70.83;100214.17;114136;1199;125010;-67
2021/10/04 03:57:11;;;;;;;13.00;9.90;;;;;;;12.12;70.77;100209.09;114269;1200;108956;-67
2021/10/04 03:59:58;;;;;;;16.30;9.60;;;;;;;12.12;70.71;100216.06;113061;1200;107292;-67
2021/10/04 04:02:46;;;;;;;18.80;9.70;;;;;;;12.12;70.75;100212.38;114018;1200;137902;-67
2021/10/04 04:05:33;;;;;;;13.30;9.40;;;;;;;12.14;70.82;100212.15;114116;1200;94540;-68
2021/10/04 04:08:21;;;;;;;12.10;9.70;;;;;;;12.14;70.65;100219.80;113637;1200;138190;-68
2021/10/04 04:11:07;;;;;;;;;;;;;;;12.14;70.71;100217.37;112887;1200;108636;-67
2021/10/04 04:13:54;;;;;;;12.80;9.30;;;;;;;12.13;70.56;100216.69;112749;1200;124717;-68
2021/10/04 04:16:41;;;;;;;15.80;9.80;;;;;;;12.11;70.64;100221.66;112849;1200;96282;-68
2021/10/04 04:19:28;;;;;;;18.60;9.60;;;;;;;12.07;70.71;100216.39;114078;1200;138305;-68
2021/10/04 04:22:15;;;;;;;13.60;9.50;;;;;;;12.03;70.80;100218.33;114225;1199;110153;-68
2021/10/04 04:25:03;;;;;;;16.80;10.40;;;;;;;12.00;70.75;100220.31;112851;1200;138776;-68
2021/10/04 04:27:58;;;;;;;13.40;10.00;;;;;;;11.98;70.93;100216.58;114220;1200;108476;-67
2021/10/04 04:30:45;;;;;;;16.50;9.90;;;;;;;11.94;70.97;100219.52;114082;1200;139306;-67
2021/10/04 04:33:36;;;;;;;14.80;9.90;;;;;;;11.92;71.13;100219.59;112824;1200;96251;-68
2021/10/04 04:36:23;;;;;;;16.70;10.20;;;;;;;11.89;71.18;100218.67;112694;1200;138571;-65
2021/10/04 04:39:10;;;;;;;13.10;10.00;;;;;;;11.86;71.28;100223.51;112829;1200;108587;-65
2021/10/04 04:41:59;;;;;;;16.20;10.10;;;;;;;11.83;71.32;100221.34;112835;1200;107775;-66
2021/10/04 04:44:46;;;;;;;17.50;10.20;;;;;;;11.80;71.44;100225.80;112740;1200;137966;-66
2021/10/04 04:47:33;;;;;;;14.90;9.60;;;;;;;11.77;71.44;100223.45;112855;1200;96279;-67
2021/10/04 04:50:20;;;;;;;13.80;9.60;;;;;;;11.75;71.51;100218.63;112656;1200;138015;-67
2021/10/04 04:53:07;;;;;;;16.10;9.60;;;;;;;11.74;71.52;100216.59;112833;1190;108203;-66
2021/10/04 04:55:54;;;;;;;15.40;9.90;;;;;;;11.74;71.48;100216.08;112672;1200;137600;-66
2021/10/04 04:58:42;;;;;;;14.10;8.60;;;;;;;11.73;71.49;100216.10;112804;1200;96746;-66
2021/10/04 05:01:28;;;;;;;17.30;10.30;;;;;;;11.74;71.66;100216.77;114045;1200;139167;-66
2021/10/04 05:04:15;;;;;;;12.70;9.80;;;;;;;11.76;71.59;100221.73;113784;1200;111227;-67
2021/10/04 05:07:02;;;;;;;17.80;9.80;;;;;;;11.78;71.51;100222.38;113059;1200;137774;-66
2021/10/04 05:09:49;;;;;;;15.60;9.60;;;;;;;11.79;71.64;100223.39;114207;1200;108328;-67
2021/10/04 05:12:36;;;;;;;15.90;9.90;;;;;;;11.81;71.58;100224.52;113132;1187;138889;-67
2021/10/04 05:15:23;;;;;;;18.10;10.10;;;;;;;11.85;71.58;100230.86;114153;1200;94820;-68
2021/10/04 05:18:10;;;;;;;16.60;8.90;;;;;;;11.87;71.62;100231.64;114145;1199;111160;-67
2021/10/04 05:20:57;;;;;;;16.90;9.90;;;;;;;11.90;71.41;100224.73;114115;1199;138111;-67
2021/10/04 05:23:43;;;;;;;15.70;10.20;;;;;;;11.95;71.42;100227.16;114174;1200;108045;-67
2021/10/04 05:26:31;;;;;;;14.90;9.70;;;;;;;12.00;71.29;100233.58;114102;1200;138371;-66
2021/10/04 05:29:17;;;;;;;14.30;8.80;;;;;;;12.06;71.08;100237.36;114228;1200;94613;-67
2021/10/04 05:32:06;;;;;;;16.00;9.30;;;;;;;12.13;70.92;100243.88;114061;1200;137825;-67
2021/10/04 05:34:53;;;;;;;14.70;9.80;;;;;;;12.23;70.69;100241.58;114269;1199;108427;-67
2021/10/04 05:37:40;;;;;;;14.00;9.00;;;;;;;12.33;70.38;100241.38;114095;1200;138201;-67
2021/10/04 05:40:27;;;;;;;16.40;9.20;;;;;;;12.42;70.00;100252.70;114174;1200;94413;-67
2021/10/04 05:43:14;;;;;;;14.90;9.70;;;;;;;12.52;69.66;100239.39;114106;1199;138098;-68
2021/10/04 05:46:02;;;;;;;13.70;9.10;;;;;;;12.62;69.33;100235.67;113699;1199;109906;-68
2021/10/04 05:48:49;;;;;;;13.60;9.50;;;;;;;12.67;69.00;100242.93;113085;1200;137718;-67
2021/10/04 05:51:36;;;;;;;18.90;8.90;;;;;;;12.77;68.79;100240.66;113871;1199;108688;-68
2021/10/04 05:54:25;;;;;;;13.10;9.10;;;;;;;12.84;68.52;100242.63;112740;1200;96503;-67
2021/10/04 05:57:11;;;;;;;12.40;9.20;;;;;;;12.96;68.31;100246.48;112666;1200;137689;-68
2021/10/04 05:59:58;;;;;;;14.80;9.10;;;;;;;13.08;67.87;100249.63;114231;1199;109892;-69
2021/10/04 06:02:45;;;;;;;13.40;9.40;;;;;;;13.14;67.73;100253.21;114069;1200;137521;-69
2021/10/04 06:05:32;;;;;;;16.40;9.40;;;;;;;13.25;67.50;100255.02;113054;1200;107442;-66
2021/10/04 06:08:19;;;;;;;15.00;10.10;;;;;;;14.00;66.73;100249.77;112706;1200;137747;-67
2021/10/04 06:11:06;;;;;;;13.90;8.80;;;;;;;15.26;64.58;100247.63;112882;1200;96194;-68
2021/10/04 06:13:52;;;;;;;14.40;9.20;;;;;;;16.59;61.63;100239.73;112720;1199;138359;-66
2021/10/04 06:16:39;;;;;;;14.20;8.60;;;;;;;17.37;58.06;100245.58;112825;1200;108931;-67
2021/10/04 06:19:28;;;;;;;12.10;8.40;;;;;;;17.43;57.64;100243.77;113149;1199;138490;-67
2021/10/04 06:22:15;;;;;;;15.50;8.80;;;;;;;17.71;57.02;100242.28;114192;1199;94352;-67
2021/10/04 06:25:03;;;;;;;;;;;;;;;17.86;55.99;100243.64;112656;1200;137795;-67
2021/10/04 06:27:54;;;;;;;16.80;8.60;;;;;;;18.17;55.43;100235.67;112852;1184;111232;-68
2021/10/04 06:30:41;;;;;;;16.20;8.40;;;;;;;19.02;54.26;100236.63;112795;1200;109010;-66
2021/10/04 06:33:28;;;;;;;10.30;7.80;;;;;;;19.68;51.95;100240.19;114027;1200;140445;-66
2021/10/04 06:36:15;;;;;;;13.00;8.10;;;;;;;19.64;51.11;100241.23;113419;1200;96187;-69
2021/10/04 06:39:02;;;;;;;12.70;8.00;;;;;;;20.02;50.14;100239.39;113481;1200;138042;-69
2021/10/04 06:41:49;;;;;;;14.90;8.00;;;;;;;20.86;49.26;100233.27;112922;1200;110772;-67
2021/10/04 06:44:44;;;;;;;9.00;7.40;;;;;;;21.74;48.26;100233.88;114018;1200;138182;-64
2021/10/04 06:47:31;;;;;;;14.60;7.60;;;;;;;22.38;45.52;100232.35;113185;1200;108455;-73
2021/10/04 06:50:19;;;;;;;12.40;8.10;;;;;;;22.82;44.69;100233.89;113354;1200;137626;-74
2021/10/04 06:53:06;;;;;;;10.60;7.40;;;;;;;23.29;43.25;100236.11;114240;1200;94425;-78
2021/10/04 06:55:52;;;;;;;11.60;7.10;;;;;;;23.54;42.39;100235.51;114148;1200;138343;-79
2021/10/04 06:58:39;;;;;;;11.20;7.40;;;;;;;23.84;42.63;100234.37;112835;1200;108545;-81
2021/10/04 07:01:27;;;;;;;11.10;7.10;;;;;;;24.23;41.11;100241.73;112657;1200;137994;-64
2021/10/04 07:04:14;;;;;;;11.10;7.10;;;;;;;24.46;40.65;100242.50;112765;1200;96186;-67
2021/10/04 07:07:02;;;;;;;14.70;7.00;;;;;;;24.63;39.73;100240.92;112767;1200;96250;-66
2021/10/04 07:09:49;;;;;;;13.10;6.40;;;;;;;24.75;38.88;100242.41;114106;1200;137237;-67
2021/10/04 07:12:36;;;;;;;;;;;;;;;24.92;38.28;100244.90;114203;1200;106928;-67
2021/10/04 07:15:23;;;;;;;11.30;6.20;;;;;;;25.01;38.76;100245.11;113494;1200;124059;-67
2021/10/04 07:18:10;;;;;;;13.20;6.70;;;;;;;25.38;37.96;100253.08;112803;1200;96197;-67
2021/10/04 07:20:56;;;;;;;10.90;6.30;;;;;;;25.59;38.01;100245.72;112834;1200;137516;-66
2021/10/04 07:23:44;;;;;;;12.60;6.40;;;;;;;25.92;37.55;100255.23;113872;1200;110937;-67
2021/10/04 07:26:32;;;;;;;9.20;6.90;;;;;;;26.04;36.40;100253.38;114056;1200;138196;-67
2021/10/04 07:29:20;;;;;;;10.90;6.10;;;;;;;26.18;36.57;100261.99;113310;1200;108573;-67
2021/10/04 07:32:07;;;;;;;12.80;5.80;;;;;;;26.25;36.06;100256.90;112544;1199;137788;-66
2021/10/04 07:34:54;;;;;;;11.90;6.40;;;;;;;26.35;36.63;100244.49;112770;1200;96137;-69
2021/10/04 07:37:41;;;;;;;11.70;6.60;;;;;;;26.42;35.27;100261.05;112648;1199;138377;-68
2021/10/04 07:40:28;;;;;;;15.20;6.20;;;;;;;26.50;36.15;100255.47;114185;1191;109192;-67
2021/10/04 07:43:15;;;;;;;9.50;6.30;;;;;;;26.79;35.71;100263.30;114200;1200;108580;-67
2021/10/04 07:46:06;;;;;;;8.80;6.50;;;;;;;26.89;35.37;100266.91;114066;1199;138994;-66
2021/10/04 07:48:52;;;;;;;11.80;6.10;;;;;;;26.97;34.68;100267.42;114198;1200;94167;-67
2021/10/04 07:51:39;;;;;;;;;;;;;;;27.02;35.10;100262.23;114159;1200;137738;-66
2021/10/04 07:54:27;;;;;;;11.00;6.90;;;;;;;27.07;34.99;100265.48;114187;1200;107567;-67
2021/10/04 07:57:15;;;;;;;8.40;6.30;;;;;;;27.01;34.59;100263.30;113382;1199;137511;-68
2021/10/04 08:00:04;;;;;;;15.60;6.60;;;;;;;27.02;34.08;100262.75;112817;1199;96166;-67
2021/10/04 08:02:57;;;;;;;13.00;6.30;;;;;;;27.04;34.25;100263.42;112639;1199;137463;-67
2021/10/04 08:05:44;;;;;;;9.70;5.90;;;;;;;27.19;34.63;100269.16;112814;1200;111316;-66
2021/10/04 08:08:32;;;;;;;;;;;;;;;27.42;35.11;100264.41;112677;1200;137438;-66
2021/10/04 08:11:18;;;;;;;7.90;5.80;;;;;;;27.87;34.72;100266.91;112763;1200;108712;-66
2021/10/04 08:14:05;;;;;;;12.60;6.70;;;;;;;28.24;33.84;100267.46;112722;1200;138255;-67
2021/10/04 08:16:52;;;;;;;13.80;6.80;;;;;;;28.50;34.01;100262.20;112764;1200;96135;-67
2021/10/04 08:19:40;;;;;;;10.50;6.30;;;;;;;28.65;33.18;100266.90;112746;1199;110875;-67
2021/10/04 08:22:27;;;;;;;11.10;5.70;;;;;;;28.61;33.56;100268.40;113209;1199;138716;-66
2021/10/04 08:25:14;;;;;;;9.10;6.00;;;;;;;28.77;33.80;100269.66;112742;1200;108596;-69
2021/10/04 08:28:02;;;;;;;11.20;6.00;;;;;;;29.06;33.11;100273.04;112676;1200;137726;-67
2021/10/04 08:30:48;;;;;;;;;;;;;;;29.16;32.70;100271.70;112769;1200;96207;-67
2021/10/04 08:33:35;;;;;;;8.10;5.90;;;;;;;29.25;32.32;100274.45;112714;1200;124773;-68
2021/10/04 08:36:23;;;;;;;10.20;6.10;;;;;;;29.25;32.22;100271.78;112805;1200;108942;-66
2021/10/04 08:39:10;;;;;;;10.70;5.90;;;;;;;29.18;32.03;100271.62;114026;1200;138537;-67
2021/10/04 08:41:57;;;;;;;9.60;5.90;;;;;;;29.17;31.77;100273.14;112740;1200;96825;-66
2021/10/04 08:44:46;;;;;;;15.00;5.70;;;;;;;29.15;32.23;100277.00;112699;1200;137615;-66
2021/10/04 08:47:38;;;;;;;9.50;6.10;;;;;;;29.21;31.94;100278.54;112770;1194;110919;-66
2021/10/04 08:50:28;;;;;;;16.20;6.30;;;;;;;29.13;31.86;100278.69;112654;1200;137684;-67
2021/10/04 08:53:17;;;;;;;12.30;5.90;;;;;;;29.05;32.21;100278.46;112723;1200;107645;-66
2021/10/04 08:56:04;;;;;;;13.20;6.80;;;;;;;29.01;32.74;100274.05;114100;1200;138539;-66
2021/10/04 08:58:51;;;;;;;11.60;6.30;;;;;;;29.28;32.23;100275.71;114269;1200;94505;-66
2021/10/04 09:01:37;;;;;;;9.00;6.30;;;;;;;29.32;31.32;100278.33;114218;1200;111328;-66
2021/10/04 09:04:25;;;;;;;8.40;6.20;;;;;;;29.18;31.61;100275.92;114025;1200;138826;-66
2021/10/04 09:07:11;;;;;;;11.20;5.80;;;;;;;29.29;32.02;100272.84;114253;1200;109208;-67
2021/10/04 09:09:58;;;;;;;10.60;6.20;;;;;;;29.47;31.92;100270.11;114111;1200;137510;-68
2021/10/04 09:12:47;;;;;;;;;;;;;;;29.57;31.63;100274.05;114146;1201;94763;-68
2021/10/04 09:15:44;;;;;;;13.70;6.00;;;;;;;29.32;31.81;100268.63;114116;1200;124271;-67
2021/10/04 09:18:31;;;;;;;12.70;6.70;;;;;;;29.52;32.38;100269.02;114223;1200;108487;-67
2021/10/04 09:21:18;;;;;;;10.90;5.70;;;;;;;29.81;31.71;100264.42;113639;1200;137833;-66
2021/10/04 09:24:11;;;;;;;10.20;6.60;;;;;;;29.78;31.15;100265.48;112625;1200;96662;-66
2021/10/04 09:26:58;;;;;;;10.90;6.10;;;;;;;29.89;31.09;100269.80;114090;1200;138074;-67
2021/10/04 09:29:46;;;;;;;;;;;;;;;29.79;31.06;100263.41;114278;1200;110760;-75
2021/10/04 09:32:42;;;;;;;8.80;5.90;;;;;;;29.77;31.38;100264.02;114098;1200;124738;-71
2021/10/04 09:35:31;;;;;;;11.50;6.30;;;;;;;29.56;30.72;100263.71;114209;1200;107522;-70
2021/10/04 09:38:18;;;;;;;12.70;6.00;;;;;;;29.19;30.87;100263.46;114133;1199;138746;-70
2021/10/04 09:41:04;;;;;;;10.20;6.20;;;;;;;29.13;31.59;100268.77;113304;1200;94967;-69
2021/10/04 09:44:04;;;;;;;11.20;5.60;;;;;;;28.87;31.64;100266.27;112837;1200;110781;-68
2021/10/04 09:46:50;;;;;;;8.00;5.40;;;;;;;28.79;32.27;100265.48;112859;1200;108717;-69
2021/10/04 09:49:55;;;;;;;8.90;5.90;;;;;;;28.90;32.47;100269.52;114215;1200;108606;-69
2021/10/04 09:52:45;;;;;;;9.70;6.40;;;;;;;28.74;31.51;100266.91;114024;1200;137525;-69
2021/10/04 09:55:35;;;;;;;11.30;6.50;;;;;;;28.32;31.48;100271.67;113211;1199;96254;-70
2021/10/04 09:58:30;;;;;;;8.60;6.40;;;;;;;27.93;32.19;100266.17;112687;1200;138004;-71
2021/10/04 10:01:17;;;;;;;11.30;6.10;;;;;;;27.65;32.89;100261.02;114239;1199;107615;-70
2021/10/04 10:04:03;;;;;;;13.80;6.80;;;;;;;27.56;33.74;100261.92;114035;1200;138196;-70
2021/10/04 10:06:50;;;;;;;11.30;5.70;;;;;;;27.53;33.50;100265.63;114248;1200;94850;-70
2021/10/04 10:09:45;;;;;;;9.30;6.80;;;;;;;27.31;34.06;100261.11;112935;1200;137634;-70
2021/10/04 10:12:32;;;;;;;8.70;6.20;;;;;;;27.40;34.33;100263.59;114218;1200;110911;-69
2021/10/04 10:15:27;;;;;;;8.60;5.70;;;;;;;27.40;34.56;100257.86;114124;1199;138941;-70
2021/10/04 10:18:22;;;;;;;12.70;6.30;;;;;;;27.55;34.52;100259.27;114189;1200;108491;-71
2021/10/04 10:21:15;;;;;;;10.90;5.90;;;;;;;27.50;34.62;100267.55;112689;1200;139530;-68
2021/10/04 10:24:11;;;;;;;10.40;6.10;;;;;;;27.55;35.10;100270.79;114160;1200;94457;-67
2021/10/04 10:26:59;;;;;;;7.20;5.40;;;;;;;27.65;34.64;100271.19;114078;1200;137533;-67
2021/10/04 10:29:46;;;;;;;10.00;5.60;;;;;;;27.58;34.72;100268.66;114183;1199;108571;-67
2021/10/04 10:32:36;;;;;;;14.20;6.20;;;;;;;27.52;34.59;100262.86;114054;1200;137559;-67
2021/10/04 10:35:47;;;;;;;8.60;6.10;;;;;;;27.15;34.53;100255.71;114186;1199;95228;-67
2021/10/04 10:39:04;;;;;;;9.80;5.90;;;;;;;26.82;35.52;100256.39;113757;1200;137496;-67
2021/10/04 10:42:13;;;;;;;9.30;6.50;;;;;;;26.70;35.41;100255.64;112843;1200;110829;-68
2021/10/04 10:45:00;;;;;;;9.10;5.70;;;;;;;26.30;36.22;100264.27;112676;1200;137666;-66
2021/10/04 10:47:49;;;;;;;15.40;6.90;;;;;;;26.11;36.58;100263.98;114250;1200;107469;-67
2021/10/04 10:50:41;;;;;;;11.50;6.00;;;;;;;25.91;36.73;100261.83;114101;1200;138837;-67
2021/10/04 10:53:29;;;;;;;10.10;6.40;;;;;;;25.66;36.79;100264.50;112855;1200;96257;-66
2021/10/04 10:56:16;;;;;;;11.00;6.20;;;;;;;25.44;37.65;100262.98;114060;1200;109324;-66
2021/10/04 10:59:24;;;;;;;8.40;5.60;;;;;;;25.21;37.76;100261.06;112720;1200;137553;-67
2021/10/04 11:02:49;;;;;;;10.50;6.40;;;;;;;24.93;38.24;100257.06;112668;1200;109593;-67
2021/10/04 11:05:39;;;;;;;9.90;6.10;;;;;;;24.66;38.73;100258.13;112867;1200;96153;-66
2021/10/04 11:08:34;;;;;;;10.00;6.40;;;;;;;24.64;39.56;100253.67;112781;1200;96158;-67
2021/10/04 11:11:24;;;;;;;16.00;7.00;;;;;;;24.78;39.38;100250.50;112609;1200;138295;-66
2021/10/04 11:14:13;;;;;;;10.70;6.10;;;;;;;24.85;39.31;100248.59;112800;1200;108736;-66
2021/10/04 11:17:02;;;;;;;12.10;5.90;;;;;;;24.84;38.88;100247.10;112588;1200;137650;-66
2021/10/04 11:19:49;;;;;;;16.50;7.00;;;;;;;24.63;39.30;100248.84;113923;1199;94524;-67
2021/10/04 11:22:37;;;;;;;10.10;6.50;;;;;;;24.44;39.42;100247.46;112654;1200;138364;-67
2021/10/04 11:25:24;;;;;;;;;;;;;;;24.29;40.06;100250.45;113816;1199;111140;-67
2021/10/04 11:28:14;;;;;;;9.90;6.70;;;;;;;24.21;40.01;100245.98;112993;1199;124014;-66
2021/10/04 11:31:07;;;;;;;11.50;7.00;;;;;;;24.14;40.38;100245.02;112755;1199;108508;-67
2021/10/04 11:33:59;;;;;;;15.80;6.80;;;;;;;24.21;40.48;100245.27;112643;1200;137865;-67
2021/10/04 11:36:52;;;;;;;8.70;6.20;;;;;;;24.15;40.35;100246.70;112745;1200;96856;-68
2021/10/04 11:39:40;;;;;;;9.60;6.50;;;;;;;24.11;40.55;100247.20;112597;1200;137425;-67
2021/10/04 11:42:27;;;;;;;9.20;6.00;;;;;;;24.11;40.79;100248.15;114115;1200;108737;-67
2021/10/04 11:45:14;;;;;;;14.20;6.50;;;;;;;24.07;40.49;100251.31;113838;1200;137862;-67
2021/10/04 11:48:00;;;;;;;14.30;6.80;;;;;;;23.95;40.84;100246.53;112729;1200;96157;-67
2021/10/04 11:50:49;;;;;;;11.50;6.90;;;;;;;23.86;40.83;100251.73;112703;1200;96183;-69
2021/10/04 11:53:39;;;;;;;15.20;6.40;;;;;;;23.66;41.09;100248.23;112638;1200;137901;-66
2021/10/04 11:56:27;;;;;;;12.50;7.00;;;;;;;23.57;41.47;100244.38;112658;1200;107278;-66
2021/10/04 11:59:14;;;;;;;9.90;6.10;;;;;;;23.59;41.60;100243.66;114039;1200;138180;-67
2021/10/04 12:02:16;;;;;;;16.40;6.80;;;;;;;23.55;41.56;100242.43;114116;1200;94422;-67
2021/10/04 12:05:19;;;;;;;12.60;7.80;;;;;;;23.45;41.55;100242.64;114060;1200;139054;-67
2021/10/04 12:08:11;;;;;;;9.90;6.40;;;;;;;23.34;41.72;100239.08;114238;1200;110721;-67
2021/10/04 12:10:58;;;;;;;9.40;6.30;;;;;;;23.37;41.94;100234.40;114058;1200;137397;-67
2021/10/04 12:13:45;;;;;;;9.30;6.60;;;;;;;23.38;41.74;100236.92;114174;1200;108627;-67
2021/10/04 12:16:33;;;;;;;10.10;5.60;;;;;;;23.35;41.98;100237.71;114073;1200;137367;-67
2021/10/04 12:19:20;;;;;;;7.60;5.30;;;;;;;23.42;42.09;100243.67;114206;1200;94911;-66
2021/10/04 12:22:07;;;;;;;8.40;5.40;;;;;;;23.55;42.16;100245.22;113982;1200;137201;-68
2021/10/04 12:24:54;;;;;;;11.90;6.10;;;;;;;23.56;41.85;100240.52;114184;1200;108679;-67
2021/10/04 12:27:59;;;;;;;8.70;5.80;;;;;;;23.60;41.98;100238.05;114090;1200;138549;-68
2021/10/04 12:30:47;;;;;;;11.10;6.00;;;;;;;23.56;42.03;100236.98;114140;1200;94396;-67
2021/10/04 12:33:46;;;;;;;9.40;5.20;;;;;;;23.54;42.18;100237.49;114101;1200;138527;-67
2021/10/04 12:36:40;;;;;;;9.90;5.70;;;;;;;23.56;42.17;100242.35;114189;1200;109253;-67
2021/10/04 12:39:41;;;;;;;9.00;5.50;;;;;;;23.56;42.19;100238.80;114014;1200;138053;-67
2021/10/04 12:42:29;;;;;;;9.60;6.00;;;;;;;23.58;42.14;100246.39;114215;1200;108516;-67
2021/10/04 12:45:16;;;;;;;;;;;;;;;23.56;42.10;100248.04;114179;1200;94388;-67